sensor_id;sensor_type;location;lat;lon;timestamp;P1;durP1;ratioP1;P2;durP2;ratioP2
65009;SDS011;51556;50.002;22.014;2024-02-16T00:00:06;164.50;;;73.40;;
65009;SDS011;51556;50.002;22.014;2024-02-16T00:02:32;164.50;;;70.70;;
65009;SDS011;51556;50.002;22.014;2024-02-16T00:04:57;162.70;;;71.50;;
65009;SDS011;51556;50.002;22.014;2024-02-16T00:07:23;151.90;;;68.90;;
65009;SDS011;51556;50.002;22.014;2024-02-16T00:09:49;144.60;;;65.90;;
65009;SDS011;51556;50.002;22.014;2024-02-16T00:12:14;136.30;;;62.50;;
65009;SDS011;51556;50.002;22.014;2024-02-16T00:14:41;131.40;;;61.20;;
65009;SDS011;51556;50.002;22.014;2024-02-16T00:17:07;123.60;;;59.50;;
65009;SDS011;51556;50.002;22.014;2024-02-16T00:19:35;136.10;;;59.90;;
65009;SDS011;51556;50.002;22.014;2024-02-16T00:22:01;144.00;;;67.00;;
65009;SDS011;51556;50.002;22.014;2024-02-16T00:24:26;160.00;;;71.60;;
65009;SDS011;51556;50.002;22.014;2024-02-16T00:26:52;161.80;;;69.70;;
65009;SDS011;51556;50.002;22.014;2024-02-16T00:29:17;134.00;;;62.00;;
65009;SDS011;51556;50.002;22.014;2024-02-16T00:31:44;135.20;;;61.90;;
65009;SDS011;51556;50.002;22.014;2024-02-16T00:34:09;125.40;;;59.50;;
65009;SDS011;51556;50.002;22.014;2024-02-16T00:36:35;129.30;;;59.10;;
65009;SDS011;51556;50.002;22.014;2024-02-16T00:39:01;114.30;;;56.50;;
65009;SDS011;51556;50.002;22.014;2024-02-16T00:41:28;117.20;;;55.60;;
65009;SDS011;51556;50.002;22.014;2024-02-16T00:43:54;119.50;;;53.70;;
65009;SDS011;51556;50.002;22.014;2024-02-16T00:46:21;114.70;;;54.70;;
65009;SDS011;51556;50.002;22.014;2024-02-16T00:48:51;118.10;;;56.10;;
65009;SDS011;51556;50.002;22.014;2024-02-16T00:51:19;116.20;;;56.20;;
65009;SDS011;51556;50.002;22.014;2024-02-16T00:53:45;112.90;;;53.90;;
65009;SDS011;51556;50.002;22.014;2024-02-16T00:56:11;110.90;;;54.90;;
65009;SDS011;51556;50.002;22.014;2024-02-16T00:58:39;106.00;;;49.90;;
65009;SDS011;51556;50.002;22.014;2024-02-16T01:01:07;101.40;;;48.50;;
65009;SDS011;51556;50.002;22.014;2024-02-16T01:03:35;108.20;;;50.10;;
65009;SDS011;51556;50.002;22.014;2024-02-16T01:06:03;101.50;;;47.20;;
65009;SDS011;51556;50.002;22.014;2024-02-16T01:08:29;96.10;;;44.80;;
65009;SDS011;51556;50.002;22.014;2024-02-16T01:10:55;96.20;;;45.60;;
65009;SDS011;51556;50.002;22.014;2024-02-16T01:13:20;94.60;;;47.00;;
65009;SDS011;51556;50.002;22.014;2024-02-16T01:15:46;96.40;;;44.70;;
65009;SDS011;51556;50.002;22.014;2024-02-16T01:18:11;97.00;;;45.30;;
65009;SDS011;51556;50.002;22.014;2024-02-16T01:20:37;92.40;;;44.20;;
65009;SDS011;51556;50.002;22.014;2024-02-16T01:23:02;91.40;;;43.70;;
65009;SDS011;51556;50.002;22.014;2024-02-16T01:25:30;84.90;;;41.10;;
65009;SDS011;51556;50.002;22.014;2024-02-16T01:27:56;87.50;;;42.60;;
65009;SDS011;51556;50.002;22.014;2024-02-16T01:30:21;82.50;;;40.70;;
65009;SDS011;51556;50.002;22.014;2024-02-16T01:32:47;79.10;;;39.60;;
65009;SDS011;51556;50.002;22.014;2024-02-16T01:35:13;81.70;;;41.00;;
65009;SDS011;51556;50.002;22.014;2024-02-16T01:37:40;78.00;;;40.40;;
65009;SDS011;51556;50.002;22.014;2024-02-16T01:40:06;81.40;;;37.80;;
65009;SDS011;51556;50.002;22.014;2024-02-16T01:42:34;71.50;;;37.60;;
65009;SDS011;51556;50.002;22.014;2024-02-16T01:44:59;71.30;;;34.60;;
65009;SDS011;51556;50.002;22.014;2024-02-16T01:47:25;73.40;;;35.80;;
65009;SDS011;51556;50.002;22.014;2024-02-16T01:49:51;66.10;;;32.90;;
65009;SDS011;51556;50.002;22.014;2024-02-16T01:52:16;63.30;;;33.10;;
65009;SDS011;51556;50.002;22.014;2024-02-16T01:54:42;64.00;;;31.40;;
65009;SDS011;51556;50.002;22.014;2024-02-16T01:57:08;59.90;;;29.60;;
65009;SDS011;51556;50.002;22.014;2024-02-16T01:59:36;63.90;;;32.10;;
65009;SDS011;51556;50.002;22.014;2024-02-16T02:02:02;61.80;;;31.40;;
65009;SDS011;51556;50.002;22.014;2024-02-16T02:04:27;57.70;;;29.50;;
65009;SDS011;51556;50.002;22.014;2024-02-16T02:06:53;61.70;;;29.40;;
65009;SDS011;51556;50.002;22.014;2024-02-16T02:09:19;51.80;;;26.50;;
65009;SDS011;51556;50.002;22.014;2024-02-16T02:11:44;57.00;;;27.90;;
65009;SDS011;51556;50.002;22.014;2024-02-16T02:14:10;56.50;;;27.50;;
65009;SDS011;51556;50.002;22.014;2024-02-16T02:16:36;48.70;;;26.50;;
65009;SDS011;51556;50.002;22.014;2024-02-16T02:19:02;51.80;;;26.50;;
65009;SDS011;51556;50.002;22.014;2024-02-16T02:21:28;58.20;;;26.30;;
65009;SDS011;51556;50.002;22.014;2024-02-16T02:23:53;47.80;;;25.40;;
65009;SDS011;51556;50.002;22.014;2024-02-16T02:26:19;55.20;;;27.60;;
65009;SDS011;51556;50.002;22.014;2024-02-16T02:28:44;51.90;;;25.80;;
65009;SDS011;51556;50.002;22.014;2024-02-16T02:31:10;54.90;;;27.60;;
65009;SDS011;51556;50.002;22.014;2024-02-16T02:33:36;51.10;;;26.60;;
65009;SDS011;51556;50.002;22.014;2024-02-16T02:36:01;50.10;;;26.40;;
65009;SDS011;51556;50.002;22.014;2024-02-16T02:38:29;57.90;;;28.00;;
65009;SDS011;51556;50.002;22.014;2024-02-16T02:40:55;52.50;;;28.00;;
65009;SDS011;51556;50.002;22.014;2024-02-16T02:43:21;58.10;;;29.10;;
65009;SDS011;51556;50.002;22.014;2024-02-16T02:45:48;57.80;;;29.90;;
65009;SDS011;51556;50.002;22.014;2024-02-16T02:48:14;54.60;;;29.70;;
65009;SDS011;51556;50.002;22.014;2024-02-16T02:50:39;57.00;;;29.50;;
65009;SDS011;51556;50.002;22.014;2024-02-16T02:53:05;55.20;;;29.50;;
65009;SDS011;51556;50.002;22.014;2024-02-16T02:55:30;66.10;;;33.30;;
65009;SDS011;51556;50.002;22.014;2024-02-16T02:57:56;60.80;;;31.20;;
65009;SDS011;51556;50.002;22.014;2024-02-16T03:00:23;58.70;;;31.90;;
65009;SDS011;51556;50.002;22.014;2024-02-16T03:02:48;62.40;;;33.00;;
65009;SDS011;51556;50.002;22.014;2024-02-16T03:05:14;67.20;;;34.40;;
65009;SDS011;51556;50.002;22.014;2024-02-16T03:07:40;65.10;;;33.10;;
65009;SDS011;51556;50.002;22.014;2024-02-16T03:10:05;70.40;;;34.70;;
65009;SDS011;51556;50.002;22.014;2024-02-16T03:12:34;72.90;;;34.60;;
65009;SDS011;51556;50.002;22.014;2024-02-16T03:14:59;67.30;;;34.10;;
65009;SDS011;51556;50.002;22.014;2024-02-16T03:17:25;67.70;;;35.30;;
65009;SDS011;51556;50.002;22.014;2024-02-16T03:19:50;64.90;;;34.30;;
65009;SDS011;51556;50.002;22.014;2024-02-16T03:22:16;70.00;;;34.80;;
65009;SDS011;51556;50.002;22.014;2024-02-16T03:24:42;72.20;;;34.50;;
65009;SDS011;51556;50.002;22.014;2024-02-16T03:27:09;76.40;;;36.00;;
65009;SDS011;51556;50.002;22.014;2024-02-16T03:29:35;73.50;;;34.30;;
65009;SDS011;51556;50.002;22.014;2024-02-16T03:32:01;67.20;;;34.60;;
65009;SDS011;51556;50.002;22.014;2024-02-16T03:34:27;65.20;;;33.40;;
65009;SDS011;51556;50.002;22.014;2024-02-16T03:36:52;67.60;;;32.40;;
65009;SDS011;51556;50.002;22.014;2024-02-16T03:39:18;72.60;;;33.20;;
65009;SDS011;51556;50.002;22.014;2024-02-16T03:41:45;66.30;;;33.30;;
65009;SDS011;51556;50.002;22.014;2024-02-16T03:44:13;64.60;;;32.90;;
65009;SDS011;51556;50.002;22.014;2024-02-16T03:46:40;59.10;;;30.40;;
65009;SDS011;51556;50.002;22.014;2024-02-16T03:49:05;59.40;;;30.00;;
65009;SDS011;51556;50.002;22.014;2024-02-16T03:51:30;59.70;;;28.60;;
65009;SDS011;51556;50.002;22.014;2024-02-16T03:53:56;55.50;;;29.20;;
65009;SDS011;51556;50.002;22.014;2024-02-16T03:56:21;56.10;;;29.60;;
65009;SDS011;51556;50.002;22.014;2024-02-16T03:58:47;56.00;;;29.30;;
65009;SDS011;51556;50.002;22.014;2024-02-16T04:01:12;62.70;;;30.50;;
65009;SDS011;51556;50.002;22.014;2024-02-16T04:03:38;58.30;;;28.80;;
65009;SDS011;51556;50.002;22.014;2024-02-16T04:06:04;55.30;;;29.00;;
65009;SDS011;51556;50.002;22.014;2024-02-16T04:08:29;62.30;;;29.10;;
65009;SDS011;51556;50.002;22.014;2024-02-16T04:10:55;54.80;;;28.50;;
65009;SDS011;51556;50.002;22.014;2024-02-16T04:13:20;54.50;;;28.20;;
65009;SDS011;51556;50.002;22.014;2024-02-16T04:15:46;58.90;;;28.70;;
65009;SDS011;51556;50.002;22.014;2024-02-16T04:18:11;57.80;;;28.70;;
65009;SDS011;51556;50.002;22.014;2024-02-16T04:20:37;72.10;;;29.80;;
65009;SDS011;51556;50.002;22.014;2024-02-16T04:23:03;60.20;;;28.00;;
65009;SDS011;51556;50.002;22.014;2024-02-16T04:25:28;55.70;;;28.40;;
65009;SDS011;51556;50.002;22.014;2024-02-16T04:27:54;52.50;;;28.00;;
65009;SDS011;51556;50.002;22.014;2024-02-16T04:30:19;52.50;;;27.00;;
65009;SDS011;51556;50.002;22.014;2024-02-16T04:32:45;59.00;;;27.30;;
65009;SDS011;51556;50.002;22.014;2024-02-16T04:35:10;57.30;;;27.50;;
65009;SDS011;51556;50.002;22.014;2024-02-16T04:37:39;63.20;;;28.30;;
65009;SDS011;51556;50.002;22.014;2024-02-16T04:40:05;60.80;;;27.90;;
65009;SDS011;51556;50.002;22.014;2024-02-16T04:42:31;55.40;;;27.50;;
65009;SDS011;51556;50.002;22.014;2024-02-16T04:44:57;57.00;;;28.50;;
65009;SDS011;51556;50.002;22.014;2024-02-16T04:47:24;55.60;;;27.50;;
65009;SDS011;51556;50.002;22.014;2024-02-16T04:49:50;59.20;;;29.10;;
65009;SDS011;51556;50.002;22.014;2024-02-16T04:52:15;57.10;;;28.30;;
65009;SDS011;51556;50.002;22.014;2024-02-16T04:54:41;57.30;;;28.00;;
65009;SDS011;51556;50.002;22.014;2024-02-16T04:57:06;58.80;;;28.60;;
65009;SDS011;51556;50.002;22.014;2024-02-16T04:59:32;55.40;;;27.70;;
65009;SDS011;51556;50.002;22.014;2024-02-16T05:01:58;61.60;;;30.20;;
65009;SDS011;51556;50.002;22.014;2024-02-16T05:04:23;60.00;;;30.00;;
65009;SDS011;51556;50.002;22.014;2024-02-16T05:06:49;63.70;;;31.10;;
65009;SDS011;51556;50.002;22.014;2024-02-16T05:09:16;60.00;;;28.90;;
65009;SDS011;51556;50.002;22.014;2024-02-16T05:11:45;66.10;;;29.90;;
65009;SDS011;51556;50.002;22.014;2024-02-16T05:14:11;59.00;;;29.20;;
65009;SDS011;51556;50.002;22.014;2024-02-16T05:16:45;54.20;;;28.40;;
65009;SDS011;51556;50.002;22.014;2024-02-16T05:19:11;57.00;;;27.50;;
65009;SDS011;51556;50.002;22.014;2024-02-16T05:21:37;61.50;;;27.50;;
65009;SDS011;51556;50.002;22.014;2024-02-16T05:24:03;58.20;;;27.60;;
65009;SDS011;51556;50.002;22.014;2024-02-16T05:26:28;53.70;;;27.90;;
65009;SDS011;51556;50.002;22.014;2024-02-16T05:28:54;58.70;;;28.30;;
65009;SDS011;51556;50.002;22.014;2024-02-16T05:31:19;60.20;;;30.30;;
65009;SDS011;51556;50.002;22.014;2024-02-16T05:33:48;60.40;;;30.30;;
65009;SDS011;51556;50.002;22.014;2024-02-16T05:36:18;59.40;;;29.50;;
65009;SDS011;51556;50.002;22.014;2024-02-16T05:38:46;62.70;;;31.00;;
65009;SDS011;51556;50.002;22.014;2024-02-16T05:41:11;62.90;;;30.20;;
65009;SDS011;51556;50.002;22.014;2024-02-16T05:43:37;59.90;;;30.40;;
65009;SDS011;51556;50.002;22.014;2024-02-16T05:46:03;63.50;;;30.10;;
65009;SDS011;51556;50.002;22.014;2024-02-16T05:48:32;57.90;;;29.80;;
65009;SDS011;51556;50.002;22.014;2024-02-16T05:51:00;58.80;;;29.00;;
65009;SDS011;51556;50.002;22.014;2024-02-16T05:53:26;56.20;;;29.80;;
65009;SDS011;51556;50.002;22.014;2024-02-16T05:55:55;64.00;;;29.40;;
65009;SDS011;51556;50.002;22.014;2024-02-16T05:58:21;56.70;;;28.70;;
65009;SDS011;51556;50.002;22.014;2024-02-16T06:00:46;48.20;;;26.10;;
65009;SDS011;51556;50.002;22.014;2024-02-16T06:03:13;49.80;;;25.80;;
65009;SDS011;51556;50.002;22.014;2024-02-16T06:05:39;50.00;;;26.10;;
65009;SDS011;51556;50.002;22.014;2024-02-16T06:08:06;47.40;;;25.90;;
65009;SDS011;51556;50.002;22.014;2024-02-16T06:10:32;49.40;;;26.20;;
65009;SDS011;51556;50.002;22.014;2024-02-16T06:12:58;50.60;;;25.80;;
65009;SDS011;51556;50.002;22.014;2024-02-16T06:15:24;49.60;;;26.10;;
65009;SDS011;51556;50.002;22.014;2024-02-16T06:17:50;53.00;;;26.20;;
65009;SDS011;51556;50.002;22.014;2024-02-16T06:20:16;55.00;;;26.70;;
65009;SDS011;51556;50.002;22.014;2024-02-16T06:22:41;51.50;;;25.00;;
65009;SDS011;51556;50.002;22.014;2024-02-16T06:25:07;50.80;;;25.60;;
65009;SDS011;51556;50.002;22.014;2024-02-16T06:27:33;52.10;;;26.80;;
65009;SDS011;51556;50.002;22.014;2024-02-16T06:29:58;51.70;;;26.20;;
65009;SDS011;51556;50.002;22.014;2024-02-16T06:32:24;52.30;;;27.00;;
65009;SDS011;51556;50.002;22.014;2024-02-16T06:34:49;55.80;;;28.40;;
65009;SDS011;51556;50.002;22.014;2024-02-16T06:37:15;55.00;;;29.70;;
65009;SDS011;51556;50.002;22.014;2024-02-16T06:39:40;62.80;;;31.70;;
65009;SDS011;51556;50.002;22.014;2024-02-16T06:42:05;69.00;;;33.30;;
65009;SDS011;51556;50.002;22.014;2024-02-16T06:44:31;70.80;;;34.90;;
65009;SDS011;51556;50.002;22.014;2024-02-16T06:46:56;72.00;;;34.30;;
65009;SDS011;51556;50.002;22.014;2024-02-16T06:49:22;73.20;;;35.70;;
65009;SDS011;51556;50.002;22.014;2024-02-16T06:51:47;86.60;;;41.30;;
65009;SDS011;51556;50.002;22.014;2024-02-16T06:54:12;85.60;;;39.80;;
65009;SDS011;51556;50.002;22.014;2024-02-16T06:56:39;81.30;;;39.10;;
65009;SDS011;51556;50.002;22.014;2024-02-16T06:59:05;79.20;;;39.10;;
65009;SDS011;51556;50.002;22.014;2024-02-16T07:01:30;87.60;;;37.60;;
65009;SDS011;51556;50.002;22.014;2024-02-16T07:03:55;73.70;;;35.20;;
65009;SDS011;51556;50.002;22.014;2024-02-16T07:06:21;72.80;;;34.90;;
65009;SDS011;51556;50.002;22.014;2024-02-16T07:08:47;72.30;;;33.60;;
65009;SDS011;51556;50.002;22.014;2024-02-16T07:11:12;63.00;;;31.10;;
65009;SDS011;51556;50.002;22.014;2024-02-16T07:13:41;67.40;;;30.50;;
65009;SDS011;51556;50.002;22.014;2024-02-16T07:16:07;66.00;;;31.10;;
65009;SDS011;51556;50.002;22.014;2024-02-16T07:18:33;60.10;;;30.60;;
65009;SDS011;51556;50.002;22.014;2024-02-16T07:20:59;56.00;;;27.60;;
65009;SDS011;51556;50.002;22.014;2024-02-16T07:23:25;53.30;;;27.60;;
65009;SDS011;51556;50.002;22.014;2024-02-16T07:25:50;57.70;;;28.10;;
65009;SDS011;51556;50.002;22.014;2024-02-16T07:28:16;49.90;;;26.20;;
65009;SDS011;51556;50.002;22.014;2024-02-16T07:30:41;52.70;;;27.20;;
65009;SDS011;51556;50.002;22.014;2024-02-16T07:33:07;60.20;;;30.20;;
65009;SDS011;51556;50.002;22.014;2024-02-16T07:35:33;71.70;;;34.00;;
65009;SDS011;51556;50.002;22.014;2024-02-16T07:38:00;75.10;;;34.10;;
65009;SDS011;51556;50.002;22.014;2024-02-16T07:40:27;68.90;;;35.40;;
65009;SDS011;51556;50.002;22.014;2024-02-16T07:42:53;67.60;;;33.70;;
65009;SDS011;51556;50.002;22.014;2024-02-16T07:45:18;76.30;;;36.80;;
65009;SDS011;51556;50.002;22.014;2024-02-16T07:47:45;70.10;;;34.70;;
65009;SDS011;51556;50.002;22.014;2024-02-16T07:50:10;67.10;;;34.70;;
65009;SDS011;51556;50.002;22.014;2024-02-16T07:52:37;72.40;;;32.80;;
65009;SDS011;51556;50.002;22.014;2024-02-16T07:55:04;65.30;;;33.60;;
65009;SDS011;51556;50.002;22.014;2024-02-16T07:57:30;41.40;;;22.90;;
65009;SDS011;51556;50.002;22.014;2024-02-16T07:59:56;34.20;;;18.80;;
65009;SDS011;51556;50.002;22.014;2024-02-16T08:02:21;23.40;;;12.10;;
65009;SDS011;51556;50.002;22.014;2024-02-16T08:04:47;14.60;;;8.30;;
65009;SDS011;51556;50.002;22.014;2024-02-16T08:07:13;12.90;;;7.70;;
65009;SDS011;51556;50.002;22.014;2024-02-16T08:09:39;16.70;;;8.00;;
65009;SDS011;51556;50.002;22.014;2024-02-16T08:12:04;25.50;;;9.90;;
65009;SDS011;51556;50.002;22.014;2024-02-16T08:14:32;13.70;;;8.20;;
65009;SDS011;51556;50.002;22.014;2024-02-16T08:16:59;23.00;;;9.70;;
65009;SDS011;51556;50.002;22.014;2024-02-16T08:19:26;17.70;;;9.10;;
65009;SDS011;51556;50.002;22.014;2024-02-16T08:21:58;15.90;;;8.30;;
65009;SDS011;51556;50.002;22.014;2024-02-16T08:24:24;15.70;;;8.70;;
65009;SDS011;51556;50.002;22.014;2024-02-16T08:26:50;17.50;;;8.10;;
65009;SDS011;51556;50.002;22.014;2024-02-16T08:29:16;17.60;;;8.00;;
65009;SDS011;51556;50.002;22.014;2024-02-16T08:31:41;17.60;;;8.60;;
65009;SDS011;51556;50.002;22.014;2024-02-16T08:34:06;28.90;;;9.50;;
65009;SDS011;51556;50.002;22.014;2024-02-16T08:36:32;16.80;;;8.40;;
65009;SDS011;51556;50.002;22.014;2024-02-16T08:38:59;21.20;;;9.00;;
65009;SDS011;51556;50.002;22.014;2024-02-16T08:41:24;13.90;;;7.60;;
65009;SDS011;51556;50.002;22.014;2024-02-16T08:43:50;14.80;;;8.00;;
65009;SDS011;51556;50.002;22.014;2024-02-16T08:46:15;22.30;;;8.40;;
65009;SDS011;51556;50.002;22.014;2024-02-16T08:48:41;16.30;;;9.00;;
65009;SDS011;51556;50.002;22.014;2024-02-16T08:51:06;13.60;;;7.70;;
65009;SDS011;51556;50.002;22.014;2024-02-16T08:53:32;17.80;;;9.10;;
65009;SDS011;51556;50.002;22.014;2024-02-16T08:55:57;17.90;;;9.10;;
65009;SDS011;51556;50.002;22.014;2024-02-16T08:58:23;14.90;;;9.10;;
65009;SDS011;51556;50.002;22.014;2024-02-16T09:00:48;19.80;;;9.10;;
65009;SDS011;51556;50.002;22.014;2024-02-16T09:03:15;15.10;;;8.60;;
65009;SDS011;51556;50.002;22.014;2024-02-16T09:05:41;13.30;;;8.00;;
65009;SDS011;51556;50.002;22.014;2024-02-16T09:08:08;16.60;;;8.90;;
65009;SDS011;51556;50.002;22.014;2024-02-16T09:10:34;17.70;;;8.80;;
65009;SDS011;51556;50.002;22.014;2024-02-16T09:13:00;20.50;;;10.30;;
65009;SDS011;51556;50.002;22.014;2024-02-16T09:15:25;17.90;;;9.50;;
65009;SDS011;51556;50.002;22.014;2024-02-16T09:17:51;32.80;;;10.20;;
65009;SDS011;51556;50.002;22.014;2024-02-16T09:20:16;19.00;;;8.10;;
65009;SDS011;51556;50.002;22.014;2024-02-16T09:22:47;18.40;;;9.00;;
65009;SDS011;51556;50.002;22.014;2024-02-16T09:25:13;15.30;;;8.20;;
65009;SDS011;51556;50.002;22.014;2024-02-16T09:27:39;18.60;;;8.50;;
65009;SDS011;51556;50.002;22.014;2024-02-16T09:30:07;14.70;;;7.70;;
65009;SDS011;51556;50.002;22.014;2024-02-16T09:32:36;18.70;;;9.80;;
65009;SDS011;51556;50.002;22.014;2024-02-16T09:35:04;13.40;;;8.50;;
65009;SDS011;51556;50.002;22.014;2024-02-16T09:37:29;13.70;;;8.90;;
65009;SDS011;51556;50.002;22.014;2024-02-16T09:39:55;16.00;;;9.10;;
65009;SDS011;51556;50.002;22.014;2024-02-16T09:42:21;17.40;;;7.70;;
65009;SDS011;51556;50.002;22.014;2024-02-16T09:44:48;12.80;;;6.40;;
65009;SDS011;51556;50.002;22.014;2024-02-16T09:47:15;9.90;;;6.70;;
65009;SDS011;51556;50.002;22.014;2024-02-16T09:49:44;13.40;;;6.20;;
65009;SDS011;51556;50.002;22.014;2024-02-16T09:52:10;33.60;;;7.50;;
65009;SDS011;51556;50.002;22.014;2024-02-16T09:54:37;13.70;;;5.90;;
65009;SDS011;51556;50.002;22.014;2024-02-16T09:57:04;11.40;;;5.90;;
65009;SDS011;51556;50.002;22.014;2024-02-16T09:59:29;11.20;;;5.70;;
65009;SDS011;51556;50.002;22.014;2024-02-16T10:02:00;6.80;;;4.50;;
65009;SDS011;51556;50.002;22.014;2024-02-16T10:04:28;8.80;;;5.70;;
65009;SDS011;51556;50.002;22.014;2024-02-16T10:06:54;9.00;;;5.30;;
65009;SDS011;51556;50.002;22.014;2024-02-16T10:09:27;7.30;;;4.80;;
65009;SDS011;51556;50.002;22.014;2024-02-16T10:11:57;12.50;;;5.30;;
65009;SDS011;51556;50.002;22.014;2024-02-16T10:14:23;10.50;;;5.80;;
65009;SDS011;51556;50.002;22.014;2024-02-16T10:17:03;16.60;;;6.20;;
65009;SDS011;51556;50.002;22.014;2024-02-16T10:19:31;10.10;;;5.70;;
65009;SDS011;51556;50.002;22.014;2024-02-16T10:22:08;11.00;;;5.90;;
65009;SDS011;51556;50.002;22.014;2024-02-16T10:24:34;12.40;;;5.40;;
65009;SDS011;51556;50.002;22.014;2024-02-16T10:26:59;22.90;;;11.20;;
65009;SDS011;51556;50.002;22.014;2024-02-16T10:29:25;11.70;;;6.70;;
65009;SDS011;51556;50.002;22.014;2024-02-16T10:31:52;18.60;;;9.20;;
65009;SDS011;51556;50.002;22.014;2024-02-16T10:34:18;25.40;;;12.30;;
65009;SDS011;51556;50.002;22.014;2024-02-16T10:36:47;16.40;;;8.20;;
65009;SDS011;51556;50.002;22.014;2024-02-16T10:39:13;10.00;;;5.60;;
65009;SDS011;51556;50.002;22.014;2024-02-16T10:41:40;9.40;;;5.10;;
65009;SDS011;51556;50.002;22.014;2024-02-16T10:44:07;12.60;;;6.50;;
65009;SDS011;51556;50.002;22.014;2024-02-16T10:46:33;12.30;;;5.70;;
65009;SDS011;51556;50.002;22.014;2024-02-16T10:48:59;9.90;;;5.10;;
65009;SDS011;51556;50.002;22.014;2024-02-16T10:51:30;8.10;;;5.30;;
65009;SDS011;51556;50.002;22.014;2024-02-16T10:54:00;26.60;;;12.90;;
65009;SDS011;51556;50.002;22.014;2024-02-16T10:56:27;11.80;;;5.70;;
65009;SDS011;51556;50.002;22.014;2024-02-16T10:59:05;9.60;;;5.80;;
65009;SDS011;51556;50.002;22.014;2024-02-16T11:01:37;10.40;;;5.00;;
65009;SDS011;51556;50.002;22.014;2024-02-16T11:04:07;6.90;;;4.60;;
65009;SDS011;51556;50.002;22.014;2024-02-16T11:06:53;9.30;;;5.50;;
65009;SDS011;51556;50.002;22.014;2024-02-16T11:09:27;7.20;;;4.50;;
65009;SDS011;51556;50.002;22.014;2024-02-16T11:11:59;8.40;;;5.50;;
65009;SDS011;51556;50.002;22.014;2024-02-16T11:14:35;9.70;;;5.40;;
65009;SDS011;51556;50.002;22.014;2024-02-16T11:17:02;11.50;;;6.00;;
65009;SDS011;51556;50.002;22.014;2024-02-16T11:19:34;8.60;;;4.80;;
65009;SDS011;51556;50.002;22.014;2024-02-16T11:22:02;8.40;;;5.00;;
65009;SDS011;51556;50.002;22.014;2024-02-16T11:24:32;7.90;;;5.40;;
65009;SDS011;51556;50.002;22.014;2024-02-16T11:27:04;9.10;;;4.90;;
65009;SDS011;51556;50.002;22.014;2024-02-16T11:29:36;8.90;;;5.70;;
65009;SDS011;51556;50.002;22.014;2024-02-16T11:32:03;9.60;;;5.20;;
65009;SDS011;51556;50.002;22.014;2024-02-16T11:34:30;10.80;;;5.50;;
65009;SDS011;51556;50.002;22.014;2024-02-16T11:36:57;9.30;;;5.20;;
65009;SDS011;51556;50.002;22.014;2024-02-16T11:39:26;9.30;;;5.50;;
65009;SDS011;51556;50.002;22.014;2024-02-16T11:42:07;9.40;;;4.70;;
65009;SDS011;51556;50.002;22.014;2024-02-16T11:44:39;7.90;;;4.80;;
65009;SDS011;51556;50.002;22.014;2024-02-16T11:47:05;11.40;;;5.00;;
65009;SDS011;51556;50.002;22.014;2024-02-16T11:49:40;6.50;;;4.30;;
65009;SDS011;51556;50.002;22.014;2024-02-16T11:52:05;10.80;;;5.90;;
65009;SDS011;51556;50.002;22.014;2024-02-16T11:54:32;9.40;;;5.00;;
65009;SDS011;51556;50.002;22.014;2024-02-16T11:56:58;10.70;;;6.10;;
65009;SDS011;51556;50.002;22.014;2024-02-16T11:59:23;10.00;;;5.20;;
65009;SDS011;51556;50.002;22.014;2024-02-16T12:06:52;6.90;;;4.60;;
65009;SDS011;51556;50.002;22.014;2024-02-16T12:09:27;8.10;;;5.10;;
65009;SDS011;51556;50.002;22.014;2024-02-16T12:11:54;8.50;;;4.40;;
65009;SDS011;51556;50.002;22.014;2024-02-16T12:14:23;8.80;;;4.30;;
65009;SDS011;51556;50.002;22.014;2024-02-16T12:16:55;7.00;;;3.90;;
65009;SDS011;51556;50.002;22.014;2024-02-16T12:19:21;7.30;;;4.20;;
65009;SDS011;51556;50.002;22.014;2024-02-16T12:21:54;4.50;;;3.40;;
65009;SDS011;51556;50.002;22.014;2024-02-16T12:24:22;4.40;;;3.50;;
65009;SDS011;51556;50.002;22.014;2024-02-16T12:26:48;5.70;;;3.40;;
65009;SDS011;51556;50.002;22.014;2024-02-16T12:29:14;4.60;;;3.30;;
65009;SDS011;51556;50.002;22.014;2024-02-16T12:31:40;10.50;;;3.60;;
65009;SDS011;51556;50.002;22.014;2024-02-16T12:34:07;5.70;;;3.50;;
65009;SDS011;51556;50.002;22.014;2024-02-16T12:36:33;5.20;;;3.10;;
65009;SDS011;51556;50.002;22.014;2024-02-16T12:39:00;4.70;;;3.10;;
65009;SDS011;51556;50.002;22.014;2024-02-16T12:41:26;7.30;;;3.50;;
65009;SDS011;51556;50.002;22.014;2024-02-16T12:43:51;5.10;;;3.40;;
65009;SDS011;51556;50.002;22.014;2024-02-16T12:46:17;4.00;;;3.10;;
65009;SDS011;51556;50.002;22.014;2024-02-16T12:48:44;5.10;;;3.00;;
65009;SDS011;51556;50.002;22.014;2024-02-16T12:51:09;4.70;;;2.90;;
65009;SDS011;51556;50.002;22.014;2024-02-16T12:53:36;4.80;;;2.90;;
65009;SDS011;51556;50.002;22.014;2024-02-16T12:56:08;7.40;;;3.10;;
65009;SDS011;51556;50.002;22.014;2024-02-16T12:58:35;4.60;;;3.10;;
65009;SDS011;51556;50.002;22.014;2024-02-16T13:01:01;4.30;;;2.90;;
65009;SDS011;51556;50.002;22.014;2024-02-16T13:03:37;10.10;;;3.60;;
65009;SDS011;51556;50.002;22.014;2024-02-16T13:06:04;6.40;;;3.40;;
65009;SDS011;51556;50.002;22.014;2024-02-16T13:08:30;5.30;;;3.40;;
65009;SDS011;51556;50.002;22.014;2024-02-16T13:10:56;4.10;;;3.40;;
65009;SDS011;51556;50.002;22.014;2024-02-16T13:13:23;4.80;;;3.20;;
65009;SDS011;51556;50.002;22.014;2024-02-16T13:15:49;4.90;;;3.10;;
65009;SDS011;51556;50.002;22.014;2024-02-16T13:18:14;5.30;;;3.30;;
65009;SDS011;51556;50.002;22.014;2024-02-16T13:20:40;6.90;;;3.50;;
65009;SDS011;51556;50.002;22.014;2024-02-16T13:23:06;4.70;;;2.90;;
65009;SDS011;51556;50.002;22.014;2024-02-16T13:25:31;5.60;;;2.90;;
65009;SDS011;51556;50.002;22.014;2024-02-16T13:27:57;5.50;;;2.90;;
65009;SDS011;51556;50.002;22.014;2024-02-16T13:30:22;4.40;;;2.70;;
65009;SDS011;51556;50.002;22.014;2024-02-16T13:32:48;5.20;;;2.80;;
65009;SDS011;51556;50.002;22.014;2024-02-16T13:35:13;5.50;;;3.00;;
65009;SDS011;51556;50.002;22.014;2024-02-16T13:37:40;4.40;;;2.60;;
65009;SDS011;51556;50.002;22.014;2024-02-16T13:40:06;4.80;;;3.30;;
65009;SDS011;51556;50.002;22.014;2024-02-16T13:42:36;3.80;;;2.50;;
65009;SDS011;51556;50.002;22.014;2024-02-16T13:45:03;4.00;;;3.10;;
65009;SDS011;51556;50.002;22.014;2024-02-16T13:47:29;4.50;;;2.90;;
65009;SDS011;51556;50.002;22.014;2024-02-16T13:49:54;5.80;;;3.10;;
65009;SDS011;51556;50.002;22.014;2024-02-16T13:52:22;6.20;;;3.60;;
65009;SDS011;51556;50.002;22.014;2024-02-16T13:54:48;5.90;;;3.20;;
65009;SDS011;51556;50.002;22.014;2024-02-16T13:57:13;3.20;;;2.60;;
65009;SDS011;51556;50.002;22.014;2024-02-16T13:59:38;5.90;;;3.20;;
65009;SDS011;51556;50.002;22.014;2024-02-16T14:02:04;5.30;;;3.10;;
65009;SDS011;51556;50.002;22.014;2024-02-16T14:04:29;4.50;;;2.70;;
65009;SDS011;51556;50.002;22.014;2024-02-16T14:06:55;5.10;;;3.00;;
65009;SDS011;51556;50.002;22.014;2024-02-16T14:09:20;5.00;;;3.40;;
65009;SDS011;51556;50.002;22.014;2024-02-16T14:11:46;5.20;;;2.80;;
65009;SDS011;51556;50.002;22.014;2024-02-16T14:14:12;7.70;;;3.00;;
65009;SDS011;51556;50.002;22.014;2024-02-16T14:16:37;3.80;;;2.80;;